sensor_id;sensor_type;location;lat;lon;timestamp;P1;durP1;ratioP1;P2;durP2;ratioP2
15285;SDS011;7744;52.172;10.668;2023-03-23T00:02:25;2.78;;;1.02;;
15285;SDS011;7744;52.172;10.668;2023-03-23T00:04:52;2.00;;;1.15;;
15285;SDS011;7744;52.172;10.668;2023-03-23T00:07:18;1.25;;;0.80;;
15285;SDS011;7744;52.172;10.668;2023-03-23T00:09:51;1.70;;;1.10;;
15285;SDS011;7744;52.172;10.668;2023-03-23T00:12:25;1.63;;;1.05;;
15285;SDS011;7744;52.172;10.668;2023-03-23T00:15:02;1.90;;;0.90;;
15285;SDS011;7744;52.172;10.668;2023-03-23T00:17:29;2.08;;;0.80;;
15285;SDS011;7744;52.172;10.668;2023-03-23T00:19:57;1.58;;;0.90;;
15285;SDS011;7744;52.172;10.668;2023-03-23T00:22:26;1.63;;;1.10;;
15285;SDS011;7744;52.172;10.668;2023-03-23T00:24:53;1.50;;;1.02;;
15285;SDS011;7744;52.172;10.668;2023-03-23T00:27:19;2.85;;;0.98;;
15285;SDS011;7744;52.172;10.668;2023-03-23T00:29:47;1.45;;;1.00;;
15285;SDS011;7744;52.172;10.668;2023-03-23T00:32:19;1.50;;;1.10;;
15285;SDS011;7744;52.172;10.668;2023-03-23T00:34:53;2.03;;;1.00;;
15285;SDS011;7744;52.172;10.668;2023-03-23T00:37:19;1.67;;;0.88;;
15285;SDS011;7744;52.172;10.668;2023-03-23T00:39:46;1.63;;;1.02;;
15285;SDS011;7744;52.172;10.668;2023-03-23T00:42:13;2.08;;;1.00;;
15285;SDS011;7744;52.172;10.668;2023-03-23T00:44:39;0.90;;;0.70;;
15285;SDS011;7744;52.172;10.668;2023-03-23T00:47:06;1.75;;;1.27;;
15285;SDS011;7744;52.172;10.668;2023-03-23T00:49:33;2.78;;;1.23;;
15285;SDS011;7744;52.172;10.668;2023-03-23T00:52:00;1.50;;;1.10;;
15285;SDS011;7744;52.172;10.668;2023-03-23T00:54:26;1.63;;;1.00;;
15285;SDS011;7744;52.172;10.668;2023-03-23T00:56:52;3.42;;;1.08;;
15285;SDS011;7744;52.172;10.668;2023-03-23T00:59:18;3.08;;;1.02;;
15285;SDS011;7744;52.172;10.668;2023-03-23T01:01:44;4.20;;;1.42;;
15285;SDS011;7744;52.172;10.668;2023-03-23T01:04:10;2.28;;;1.30;;
15285;SDS011;7744;52.172;10.668;2023-03-23T01:06:37;2.20;;;1.13;;
15285;SDS011;7744;52.172;10.668;2023-03-23T01:09:05;2.15;;;1.00;;
15285;SDS011;7744;52.172;10.668;2023-03-23T01:11:49;3.53;;;1.40;;
15285;SDS011;7744;52.172;10.668;2023-03-23T01:14:16;2.85;;;1.17;;
15285;SDS011;7744;52.172;10.668;2023-03-23T01:16:43;2.20;;;1.33;;
15285;SDS011;7744;52.172;10.668;2023-03-23T01:19:08;1.30;;;1.17;;
15285;SDS011;7744;52.172;10.668;2023-03-23T01:21:35;2.15;;;1.27;;
15285;SDS011;7744;52.172;10.668;2023-03-23T01:24:01;1.10;;;1.00;;
15285;SDS011;7744;52.172;10.668;2023-03-23T01:26:27;4.60;;;1.40;;
15285;SDS011;7744;52.172;10.668;2023-03-23T01:28:54;2.95;;;1.20;;
15285;SDS011;7744;52.172;10.668;2023-03-23T01:31:21;1.73;;;1.20;;
15285;SDS011;7744;52.172;10.668;2023-03-23T01:33:48;2.40;;;1.20;;
15285;SDS011;7744;52.172;10.668;2023-03-23T01:36:20;2.45;;;1.27;;
15285;SDS011;7744;52.172;10.668;2023-03-23T01:38:53;1.70;;;1.00;;
15285;SDS011;7744;52.172;10.668;2023-03-23T01:41:20;3.50;;;1.40;;
15285;SDS011;7744;52.172;10.668;2023-03-23T01:46:35;2.65;;;1.70;;
15285;SDS011;7744;52.172;10.668;2023-03-23T01:49:03;2.33;;;1.42;;
15285;SDS011;7744;52.172;10.668;2023-03-23T01:51:47;2.80;;;1.40;;
15285;SDS011;7744;52.172;10.668;2023-03-23T01:54:18;1.98;;;1.13;;
15285;SDS011;7744;52.172;10.668;2023-03-23T01:56:55;2.05;;;1.10;;
15285;SDS011;7744;52.172;10.668;2023-03-23T01:59:24;2.40;;;1.20;;
15285;SDS011;7744;52.172;10.668;2023-03-23T02:01:52;1.88;;;1.17;;
15285;SDS011;7744;52.172;10.668;2023-03-23T02:04:18;2.42;;;1.38;;
15285;SDS011;7744;52.172;10.668;2023-03-23T02:06:46;1.38;;;1.17;;
15285;SDS011;7744;52.172;10.668;2023-03-23T02:09:12;1.63;;;1.00;;
15285;SDS011;7744;52.172;10.668;2023-03-23T02:11:38;2.70;;;1.35;;
15285;SDS011;7744;52.172;10.668;2023-03-23T02:14:05;3.00;;;1.63;;
15285;SDS011;7744;52.172;10.668;2023-03-23T02:16:44;1.52;;;0.98;;
15285;SDS011;7744;52.172;10.668;2023-03-23T02:29:43;1.98;;;1.45;;
15285;SDS011;7744;52.172;10.668;2023-03-23T02:32:29;3.08;;;1.30;;
15285;SDS011;7744;52.172;10.668;2023-03-23T02:35:07;3.15;;;1.42;;
15285;SDS011;7744;52.172;10.668;2023-03-23T02:37:45;3.08;;;1.42;;
15285;SDS011;7744;52.172;10.668;2023-03-23T02:40:24;1.63;;;1.20;;
15285;SDS011;7744;52.172;10.668;2023-03-23T02:42:55;2.72;;;1.33;;
15285;SDS011;7744;52.172;10.668;2023-03-23T02:45:23;2.03;;;1.30;;
15285;SDS011;7744;52.172;10.668;2023-03-23T02:47:51;1.90;;;1.30;;
15285;SDS011;7744;52.172;10.668;2023-03-23T02:50:19;1.95;;;1.33;;
15285;SDS011;7744;52.172;10.668;2023-03-23T02:52:48;1.20;;;1.10;;
15285;SDS011;7744;52.172;10.668;2023-03-23T02:55:17;2.25;;;1.45;;
15285;SDS011;7744;52.172;10.668;2023-03-23T02:57:46;2.30;;;1.40;;
15285;SDS011;7744;52.172;10.668;2023-03-23T03:00:13;1.70;;;1.42;;
15285;SDS011;7744;52.172;10.668;2023-03-23T03:02:42;1.17;;;0.98;;
15285;SDS011;7744;52.172;10.668;2023-03-23T03:05:25;1.67;;;1.20;;
15285;SDS011;7744;52.172;10.668;2023-03-23T03:10:54;1.48;;;1.05;;
15285;SDS011;7744;52.172;10.668;2023-03-23T03:13:44;2.45;;;1.35;;
15285;SDS011;7744;52.172;10.668;2023-03-23T03:21:47;1.98;;;1.50;;
15285;SDS011;7744;52.172;10.668;2023-03-23T03:24:15;3.00;;;1.52;;
15285;SDS011;7744;52.172;10.668;2023-03-23T03:26:45;1.52;;;1.20;;
15285;SDS011;7744;52.172;10.668;2023-03-23T03:29:13;2.90;;;1.42;;
15285;SDS011;7744;52.172;10.668;2023-03-23T03:31:42;3.08;;;1.40;;
15285;SDS011;7744;52.172;10.668;2023-03-23T03:34:12;3.95;;;1.40;;
15285;SDS011;7744;52.172;10.668;2023-03-23T03:36:42;2.65;;;1.40;;
15285;SDS011;7744;52.172;10.668;2023-03-23T03:39:12;4.13;;;1.58;;
15285;SDS011;7744;52.172;10.668;2023-03-23T03:41:41;1.80;;;1.40;;
15285;SDS011;7744;52.172;10.668;2023-03-23T03:44:07;2.25;;;1.55;;
15285;SDS011;7744;52.172;10.668;2023-03-23T03:46:33;3.65;;;1.65;;
15285;SDS011;7744;52.172;10.668;2023-03-23T03:49:00;3.30;;;1.80;;
15285;SDS011;7744;52.172;10.668;2023-03-23T03:51:27;1.58;;;1.42;;
15285;SDS011;7744;52.172;10.668;2023-03-23T03:53:55;4.22;;;1.60;;
15285;SDS011;7744;52.172;10.668;2023-03-23T03:56:21;2.45;;;1.48;;
15285;SDS011;7744;52.172;10.668;2023-03-23T03:58:48;1.70;;;1.50;;
15285;SDS011;7744;52.172;10.668;2023-03-23T04:01:15;2.85;;;1.40;;
15285;SDS011;7744;52.172;10.668;2023-03-23T04:03:42;2.03;;;1.77;;
15285;SDS011;7744;52.172;10.668;2023-03-23T04:06:09;3.17;;;1.70;;
15285;SDS011;7744;52.172;10.668;2023-03-23T04:08:37;1.98;;;1.38;;
15285;SDS011;7744;52.172;10.668;2023-03-23T04:11:04;1.73;;;1.50;;
15285;SDS011;7744;52.172;10.668;2023-03-23T04:13:30;3.03;;;1.52;;
15285;SDS011;7744;52.172;10.668;2023-03-23T04:15:56;2.40;;;1.60;;
15285;SDS011;7744;52.172;10.668;2023-03-23T04:18:22;4.03;;;1.50;;
15285;SDS011;7744;52.172;10.668;2023-03-23T04:20:49;2.88;;;1.48;;
15285;SDS011;7744;52.172;10.668;2023-03-23T04:23:15;1.77;;;1.45;;
15285;SDS011;7744;52.172;10.668;2023-03-23T04:25:48;4.07;;;1.90;;
15285;SDS011;7744;52.172;10.668;2023-03-23T04:28:15;3.25;;;1.50;;
15285;SDS011;7744;52.172;10.668;2023-03-23T04:30:43;1.60;;;1.50;;
15285;SDS011;7744;52.172;10.668;2023-03-23T04:33:10;1.83;;;1.43;;
15285;SDS011;7744;52.172;10.668;2023-03-23T04:35:40;3.25;;;1.50;;
15285;SDS011;7744;52.172;10.668;2023-03-23T04:38:07;3.00;;;1.50;;
15285;SDS011;7744;52.172;10.668;2023-03-23T04:40:37;3.20;;;1.40;;
15285;SDS011;7744;52.172;10.668;2023-03-23T04:43:04;3.25;;;1.50;;
15285;SDS011;7744;52.172;10.668;2023-03-23T04:45:31;1.98;;;1.60;;
15285;SDS011;7744;52.172;10.668;2023-03-23T04:47:57;3.13;;;1.80;;
15285;SDS011;7744;52.172;10.668;2023-03-23T04:50:27;4.50;;;1.95;;
15285;SDS011;7744;52.172;10.668;2023-03-23T04:52:56;2.03;;;1.50;;
15285;SDS011;7744;52.172;10.668;2023-03-23T04:55:23;3.15;;;1.73;;
15285;SDS011;7744;52.172;10.668;2023-03-23T04:57:50;3.03;;;1.80;;
15285;SDS011;7744;52.172;10.668;2023-03-23T05:00:16;2.75;;;1.67;;
15285;SDS011;7744;52.172;10.668;2023-03-23T05:02:43;3.77;;;1.70;;
15285;SDS011;7744;52.172;10.668;2023-03-23T05:05:11;4.28;;;1.90;;
15285;SDS011;7744;52.172;10.668;2023-03-23T05:07:39;2.83;;;1.70;;
15285;SDS011;7744;52.172;10.668;2023-03-23T05:10:06;2.70;;;1.87;;
15285;SDS011;7744;52.172;10.668;2023-03-23T05:12:33;3.60;;;1.80;;
15285;SDS011;7744;52.172;10.668;2023-03-23T05:14:59;3.67;;;2.27;;
15285;SDS011;7744;52.172;10.668;2023-03-23T05:17:25;2.73;;;1.83;;
15285;SDS011;7744;52.172;10.668;2023-03-23T05:19:51;2.07;;;1.70;;
15285;SDS011;7744;52.172;10.668;2023-03-23T05:22:17;2.80;;;1.60;;
15285;SDS011;7744;52.172;10.668;2023-03-23T05:24:42;2.58;;;1.60;;
15285;SDS011;7744;52.172;10.668;2023-03-23T05:27:09;2.30;;;1.40;;
15285;SDS011;7744;52.172;10.668;2023-03-23T05:29:35;1.60;;;1.50;;
15285;SDS011;7744;52.172;10.668;2023-03-23T05:32:02;2.88;;;2.10;;
15285;SDS011;7744;52.172;10.668;2023-03-23T05:34:30;2.42;;;1.90;;
15285;SDS011;7744;52.172;10.668;2023-03-23T05:36:57;1.95;;;1.75;;
15285;SDS011;7744;52.172;10.668;2023-03-23T05:39:23;2.63;;;1.88;;
15285;SDS011;7744;52.172;10.668;2023-03-23T05:41:49;2.03;;;1.70;;
15285;SDS011;7744;52.172;10.668;2023-03-23T05:44:15;2.55;;;1.85;;
15285;SDS011;7744;52.172;10.668;2023-03-23T05:46:41;1.93;;;1.50;;
15285;SDS011;7744;52.172;10.668;2023-03-23T05:49:06;1.98;;;1.70;;
15285;SDS011;7744;52.172;10.668;2023-03-23T05:51:32;2.40;;;1.50;;
15285;SDS011;7744;52.172;10.668;2023-03-23T05:53:58;2.23;;;1.63;;
15285;SDS011;7744;52.172;10.668;2023-03-23T05:56:24;2.30;;;1.30;;
15285;SDS011;7744;52.172;10.668;2023-03-23T05:58:49;1.25;;;1.10;;
15285;SDS011;7744;52.172;10.668;2023-03-23T06:01:15;3.03;;;1.20;;
15285;SDS011;7744;52.172;10.668;2023-03-23T06:03:41;1.97;;;1.17;;
15285;SDS011;7744;52.172;10.668;2023-03-23T06:06:09;2.08;;;1.23;;
15285;SDS011;7744;52.172;10.668;2023-03-23T06:08:36;1.90;;;1.50;;
15285;SDS011;7744;52.172;10.668;2023-03-23T06:11:02;2.33;;;1.08;;
15285;SDS011;7744;52.172;10.668;2023-03-23T06:13:28;1.10;;;1.00;;
15285;SDS011;7744;52.172;10.668;2023-03-23T06:15:57;1.95;;;1.08;;
15285;SDS011;7744;52.172;10.668;2023-03-23T06:18:23;1.85;;;1.08;;
15285;SDS011;7744;52.172;10.668;2023-03-23T06:20:49;1.60;;;1.10;;
15285;SDS011;7744;52.172;10.668;2023-03-23T06:23:15;1.48;;;0.90;;
15285;SDS011;7744;52.172;10.668;2023-03-23T06:25:41;2.08;;;1.10;;
15285;SDS011;7744;52.172;10.668;2023-03-23T06:28:07;1.60;;;0.90;;
15285;SDS011;7744;52.172;10.668;2023-03-23T06:30:34;1.63;;;1.00;;
15285;SDS011;7744;52.172;10.668;2023-03-23T06:33:00;2.13;;;1.00;;
15285;SDS011;7744;52.172;10.668;2023-03-23T06:35:25;1.58;;;1.15;;
15285;SDS011;7744;52.172;10.668;2023-03-23T06:37:51;1.83;;;1.10;;
15285;SDS011;7744;52.172;10.668;2023-03-23T06:40:18;1.38;;;0.88;;
15285;SDS011;7744;52.172;10.668;2023-03-23T06:42:44;2.25;;;1.05;;
15285;SDS011;7744;52.172;10.668;2023-03-23T06:45:10;1.17;;;0.85;;
15285;SDS011;7744;52.172;10.668;2023-03-23T06:47:35;0.95;;;0.70;;
15285;SDS011;7744;52.172;10.668;2023-03-23T06:50:01;1.60;;;0.90;;
15285;SDS011;7744;52.172;10.668;2023-03-23T06:52:27;1.73;;;0.90;;
15285;SDS011;7744;52.172;10.668;2023-03-23T06:54:53;0.85;;;0.70;;
15285;SDS011;7744;52.172;10.668;2023-03-23T06:57:18;1.80;;;0.90;;
15285;SDS011;7744;52.172;10.668;2023-03-23T06:59:45;0.93;;;0.80;;
15285;SDS011;7744;52.172;10.668;2023-03-23T07:02:11;0.70;;;0.60;;
15285;SDS011;7744;52.172;10.668;2023-03-23T07:04:39;1.10;;;1.00;;
15285;SDS011;7744;52.172;10.668;2023-03-23T07:07:06;1.13;;;0.77;;
15285;SDS011;7744;52.172;10.668;2023-03-23T07:09:33;1.20;;;0.85;;
15285;SDS011;7744;52.172;10.668;2023-03-23T07:11:59;2.60;;;1.00;;
15285;SDS011;7744;52.172;10.668;2023-03-23T07:14:25;1.67;;;1.15;;
15285;SDS011;7744;52.172;10.668;2023-03-23T07:16:51;0.82;;;0.80;;
15285;SDS011;7744;52.172;10.668;2023-03-23T07:19:18;1.60;;;0.95;;
15285;SDS011;7744;52.172;10.668;2023-03-23T07:21:43;2.72;;;0.80;;
15285;SDS011;7744;52.172;10.668;2023-03-23T07:24:12;1.02;;;0.95;;
15285;SDS011;7744;52.172;10.668;2023-03-23T07:26:39;1.58;;;0.80;;
15285;SDS011;7744;52.172;10.668;2023-03-23T07:29:06;0.80;;;0.80;;
15285;SDS011;7744;52.172;10.668;2023-03-23T07:31:32;1.25;;;1.00;;
15285;SDS011;7744;52.172;10.668;2023-03-23T07:33:57;1.45;;;1.15;;
15285;SDS011;7744;52.172;10.668;2023-03-23T07:36:23;1.20;;;1.10;;
15285;SDS011;7744;52.172;10.668;2023-03-23T07:38:48;0.90;;;0.88;;
15285;SDS011;7744;52.172;10.668;2023-03-23T07:41:16;1.25;;;0.80;;
15285;SDS011;7744;52.172;10.668;2023-03-23T07:43:42;2.15;;;0.90;;
15285;SDS011;7744;52.172;10.668;2023-03-23T07:46:07;1.00;;;0.70;;
15285;SDS011;7744;52.172;10.668;2023-03-23T07:48:33;1.55;;;0.80;;
15285;SDS011;7744;52.172;10.668;2023-03-23T07:50:59;1.90;;;0.73;;
15285;SDS011;7744;52.172;10.668;2023-03-23T07:53:25;1.15;;;0.95;;
15285;SDS011;7744;52.172;10.668;2023-03-23T07:55:50;2.17;;;1.05;;
15285;SDS011;7744;52.172;10.668;2023-03-23T07:58:17;1.65;;;0.95;;
15285;SDS011;7744;52.172;10.668;2023-03-23T08:00:44;1.38;;;1.13;;
15285;SDS011;7744;52.172;10.668;2023-03-23T08:03:14;1.73;;;1.15;;
15285;SDS011;7744;52.172;10.668;2023-03-23T08:05:40;1.17;;;0.90;;
15285;SDS011;7744;52.172;10.668;2023-03-23T08:08:07;1.30;;;1.00;;
15285;SDS011;7744;52.172;10.668;2023-03-23T08:10:34;2.67;;;1.17;;
15285;SDS011;7744;52.172;10.668;2023-03-23T08:13:01;1.95;;;1.10;;
15285;SDS011;7744;52.172;10.668;2023-03-23T08:15:27;1.25;;;1.15;;
15285;SDS011;7744;52.172;10.668;2023-03-23T08:17:53;1.48;;;1.00;;
15285;SDS011;7744;52.172;10.668;2023-03-23T08:20:19;1.00;;;0.90;;
15285;SDS011;7744;52.172;10.668;2023-03-23T08:22:48;1.83;;;1.02;;
15285;SDS011;7744;52.172;10.668;2023-03-23T08:25:17;1.63;;;1.05;;
15285;SDS011;7744;52.172;10.668;2023-03-23T08:27:43;1.50;;;1.00;;
15285;SDS011;7744;52.172;10.668;2023-03-23T08:30:14;0.80;;;0.80;;
15285;SDS011;7744;52.172;10.668;2023-03-23T08:32:41;1.98;;;1.23;;
15285;SDS011;7744;52.172;10.668;2023-03-23T08:35:08;1.20;;;1.00;;
15285;SDS011;7744;52.172;10.668;2023-03-23T08:37:36;1.20;;;1.10;;
15285;SDS011;7744;52.172;10.668;2023-03-23T08:40:03;1.98;;;1.15;;
15285;SDS011;7744;52.172;10.668;2023-03-23T08:42:36;2.30;;;1.17;;
15285;SDS011;7744;52.172;10.668;2023-03-23T08:45:07;1.98;;;1.35;;
15285;SDS011;7744;52.172;10.668;2023-03-23T08:47:34;2.08;;;1.17;;
15285;SDS011;7744;52.172;10.668;2023-03-23T08:50:02;1.25;;;1.15;;
15285;SDS011;7744;52.172;10.668;2023-03-23T08:52:28;2.05;;;1.00;;
15285;SDS011;7744;52.172;10.668;2023-03-23T08:54:54;1.08;;;0.98;;
15285;SDS011;7744;52.172;10.668;2023-03-23T08:57:22;2.75;;;1.10;;
15285;SDS011;7744;52.172;10.668;2023-03-23T08:59:49;1.45;;;1.25;;
15285;SDS011;7744;52.172;10.668;2023-03-23T09:02:14;1.52;;;1.17;;
15285;SDS011;7744;52.172;10.668;2023-03-23T09:04:41;1.65;;;1.20;;
15285;SDS011;7744;52.172;10.668;2023-03-23T09:07:08;1.27;;;1.13;;
15285;SDS011;7744;52.172;10.668;2023-03-23T09:09:35;2.22;;;1.30;;
15285;SDS011;7744;52.172;10.668;2023-03-23T09:12:02;2.65;;;1.40;;
15285;SDS011;7744;52.172;10.668;2023-03-23T09:14:28;2.40;;;1.20;;
15285;SDS011;7744;52.172;10.668;2023-03-23T09:16:53;2.47;;;1.23;;
15285;SDS011;7744;52.172;10.668;2023-03-23T09:19:19;1.77;;;1.48;;
15285;SDS011;7744;52.172;10.668;2023-03-23T09:21:45;3.63;;;1.48;;
15285;SDS011;7744;52.172;10.668;2023-03-23T09:24:11;2.22;;;1.35;;
15285;SDS011;7744;52.172;10.668;2023-03-23T09:26:36;2.35;;;1.33;;
15285;SDS011;7744;52.172;10.668;2023-03-23T09:29:02;2.58;;;1.17;;
15285;SDS011;7744;52.172;10.668;2023-03-23T09:31:28;2.05;;;1.30;;
15285;SDS011;7744;52.172;10.668;2023-03-23T09:33:56;2.30;;;1.17;;
15285;SDS011;7744;52.172;10.668;2023-03-23T09:36:24;2.88;;;1.38;;
15285;SDS011;7744;52.172;10.668;2023-03-23T09:38:50;2.58;;;1.50;;
15285;SDS011;7744;52.172;10.668;2023-03-23T09:47:03;1.83;;;1.30;;
15285;SDS011;7744;52.172;10.668;2023-03-23T09:50:25;3.53;;;1.50;;
15285;SDS011;7744;52.172;10.668;2023-03-23T09:52:58;1.83;;;1.45;;
15285;SDS011;7744;52.172;10.668;2023-03-23T09:55:27;2.58;;;1.17;;
15285;SDS011;7744;52.172;10.668;2023-03-23T09:57:58;3.33;;;1.30;;
15285;SDS011;7744;52.172;10.668;2023-03-23T10:00:29;3.22;;;1.42;;
15285;SDS011;7744;52.172;10.668;2023-03-23T10:05:36;2.45;;;1.50;;
15285;SDS011;7744;52.172;10.668;2023-03-23T10:08:11;1.85;;;1.40;;
15285;SDS011;7744;52.172;10.668;2023-03-23T10:10:47;2.33;;;1.50;;
15285;SDS011;7744;52.172;10.668;2023-03-23T10:15:54;2.10;;;1.40;;
15285;SDS011;7744;52.172;10.668;2023-03-23T10:21:00;2.35;;;1.42;;
15285;SDS011;7744;52.172;10.668;2023-03-23T10:23:37;4.10;;;1.23;;
15285;SDS011;7744;52.172;10.668;2023-03-23T10:29:11;2.83;;;1.65;;
15285;SDS011;7744;52.172;10.668;2023-03-23T10:32:04;2.67;;;1.30;;
15285;SDS011;7744;52.172;10.668;2023-03-23T10:34:40;2.38;;;1.40;;
15285;SDS011;7744;52.172;10.668;2023-03-23T10:37:17;3.60;;;1.48;;
15285;SDS011;7744;52.172;10.668;2023-03-23T10:42:31;2.25;;;1.27;;
15285;SDS011;7744;52.172;10.668;2023-03-23T10:45:00;3.85;;;1.63;;
15285;SDS011;7744;52.172;10.668;2023-03-23T10:47:36;3.58;;;1.73;;
15285;SDS011;7744;52.172;10.668;2023-03-23T10:50:05;3.60;;;1.40;;
15285;SDS011;7744;52.172;10.668;2023-03-23T10:52:36;2.47;;;1.25;;
15285;SDS011;7744;52.172;10.668;2023-03-23T10:57:40;5.95;;;1.67;;
15285;SDS011;7744;52.172;10.668;2023-03-23T11:00:19;2.50;;;1.50;;
15285;SDS011;7744;52.172;10.668;2023-03-23T11:02:57;2.47;;;1.50;;
15285;SDS011;7744;52.172;10.668;2023-03-23T11:05:31;3.53;;;1.50;;
15285;SDS011;7744;52.172;10.668;2023-03-23T11:07:57;4.03;;;1.30;;
15285;SDS011;7744;52.172;10.668;2023-03-23T11:10:37;2.03;;;1.23;;
15285;SDS011;7744;52.172;10.668;2023-03-23T11:13:10;4.22;;;1.48;;
15285;SDS011;7744;52.172;10.668;2023-03-23T11:15:41;2.00;;;1.23;;
15285;SDS011;7744;52.172;10.668;2023-03-23T11:18:21;3.65;;;1.55;;
15285;SDS011;7744;52.172;10.668;2023-03-23T11:20:49;4.05;;;1.48;;
15285;SDS011;7744;52.172;10.668;2023-03-23T11:25:56;3.00;;;1.33;;
15285;SDS011;7744;52.172;10.668;2023-03-23T11:28:36;7.13;;;1.33;;
15285;SDS011;7744;52.172;10.668;2023-03-23T11:31:06;1.48;;;1.10;;
15285;SDS011;7744;52.172;10.668;2023-03-23T11:33:52;5.50;;;1.50;;
15285;SDS011;7744;52.172;10.668;2023-03-23T11:36:28;2.70;;;1.30;;
15285;SDS011;7744;52.172;10.668;2023-03-23T11:39:01;1.63;;;1.17;;
15285;SDS011;7744;52.172;10.668;2023-03-23T11:41:34;3.50;;;1.52;;
15285;SDS011;7744;52.172;10.668;2023-03-23T11:44:04;2.00;;;1.20;;
15285;SDS011;7744;52.172;10.668;2023-03-23T11:47:21;2.40;;;1.50;;
15285;SDS011;7744;52.172;10.668;2023-03-23T11:49:47;2.45;;;1.27;;
15285;SDS011;7744;52.172;10.668;2023-03-23T11:55:21;2.67;;;1.30;;
15285;SDS011;7744;52.172;10.668;2023-03-23T11:57:50;3.85;;;1.40;;
15285;SDS011;7744;52.172;10.668;2023-03-23T12:00:17;2.47;;;1.20;;
15285;SDS011;7744;52.172;10.668;2023-03-23T12:05:54;2.50;;;1.50;;
15285;SDS011;7744;52.172;10.668;2023-03-23T12:11:18;3.10;;;1.40;;
15285;SDS011;7744;52.172;10.668;2023-03-23T12:19:27;4.50;;;1.20;;
15285;SDS011;7744;52.172;10.668;2023-03-23T12:48:16;3.10;;;1.80;;
15285;SDS011;7744;52.172;10.668;2023-03-23T12:51:08;3.00;;;1.38;;
15285;SDS011;7744;52.172;10.668;2023-03-23T12:54:01;2.38;;;1.10;;
15285;SDS011;7744;52.172;10.668;2023-03-23T12:56:38;3.78;;;1.48;;
15285;SDS011;7744;52.172;10.668;2023-03-23T13:01:56;4.32;;;1.77;;
15285;SDS011;7744;52.172;10.668;2023-03-23T13:04:42;4.15;;;1.25;;
15285;SDS011;7744;52.172;10.668;2023-03-23T13:07:35;5.88;;;1.73;;
15285;SDS011;7744;52.172;10.668;2023-03-23T13:11:08;4.03;;;1.42;;
15285;SDS011;7744;52.172;10.668;2023-03-23T13:13:23;3.30;;;1.25;;
15285;SDS011;7744;52.172;10.668;2023-03-23T13:21:34;3.17;;;1.27;;
15285;SDS011;7744;52.172;10.668;2023-03-23T13:24:03;4.53;;;1.50;;
15285;SDS011;7744;52.172;10.668;2023-03-23T13:26:32;3.47;;;1.30;;
15285;SDS011;7744;52.172;10.668;2023-03-23T13:31:44;2.95;;;1.33;;
15285;SDS011;7744;52.172;10.668;2023-03-23T13:36:43;2.83;;;1.30;;
15285;SDS011;7744;52.172;10.668;2023-03-23T13:39:18;4.18;;;1.88;;
15285;SDS011;7744;52.172;10.668;2023-03-23T13:44:38;4.07;;;1.48;;
15285;SDS011;7744;52.172;10.668;2023-03-23T13:47:14;5.03;;;1.55;;
15285;SDS011;7744;52.172;10.668;2023-03-23T13:49:52;5.90;;;1.23;;
15285;SDS011;7744;52.172;10.668;2023-03-23T13:52:24;3.45;;;1.50;;
15285;SDS011;7744;52.172;10.668;2023-03-23T13:57:55;2.63;;;1.52;;
15285;SDS011;7744;52.172;10.668;2023-03-23T14:03:02;3.42;;;1.90;;
15285;SDS011;7744;52.172;10.668;2023-03-23T14:05:39;2.33;;;1.45;;
15285;SDS011;7744;52.172;10.668;2023-03-23T14:13:44;4.40;;;2.13;;
15285;SDS011;7744;52.172;10.668;2023-03-23T14:16:38;2.30;;;1.52;;
15285;SDS011;7744;52.172;10.668;2023-03-23T14:19:13;3.58;;;1.70;;
15285;SDS011;7744;52.172;10.668;2023-03-23T14:21:48;2.20;;;1.50;;
15285;SDS011;7744;52.172;10.668;2023-03-23T14:24:16;2.80;;;1.40;;
15285;SDS011;7744;52.172;10.668;2023-03-23T14:26:54;2.22;;;1.50;;
15285;SDS011;7744;52.172;10.668;2023-03-23T14:29:37;2.63;;;1.55;;
15285;SDS011;7744;52.172;10.668;2023-03-23T14:32:05;3.45;;;1.80;;
15285;SDS011;7744;52.172;10.668;2023-03-23T14:34:33;2.47;;;1.50;;
15285;SDS011;7744;52.172;10.668;2023-03-23T14:36:59;4.35;;;1.75;;
15285;SDS011;7744;52.172;10.668;2023-03-23T14:39:27;4.43;;;2.60;;
15285;SDS011;7744;52.172;10.668;2023-03-23T14:42:31;3.05;;;2.00;;
15285;SDS011;7744;52.172;10.668;2023-03-23T14:44:53;3.90;;;1.90;;
15285;SDS011;7744;52.172;10.668;2023-03-23T14:47:21;6.93;;;1.92;;
15285;SDS011;7744;52.172;10.668;2023-03-23T14:49:56;3.38;;;1.52;;
15285;SDS011;7744;52.172;10.668;2023-03-23T14:52:25;2.08;;;1.17;;
15285;SDS011;7744;52.172;10.668;2023-03-23T14:54:52;1.77;;;1.10;;
15285;SDS011;7744;52.172;10.668;2023-03-23T14:59:50;2.17;;;1.13;;
15285;SDS011;7744;52.172;10.668;2023-03-23T15:02:23;3.00;;;1.00;;
15285;SDS011;7744;52.172;10.668;2023-03-23T15:04:54;2.00;;;1.00;;
15285;SDS011;7744;52.172;10.668;2023-03-23T15:07:27;3.17;;;1.20;;
15285;SDS011;7744;52.172;10.668;2023-03-23T15:09:57;4.93;;;1.27;;
15285;SDS011;7744;52.172;10.668;2023-03-23T15:12:24;2.58;;;1.10;;
15285;SDS011;7744;52.172;10.668;2023-03-23T15:14:56;1.63;;;0.90;;
15285;SDS011;7744;52.172;10.668;2023-03-23T15:17:31;2.55;;;0.98;;
15285;SDS011;7744;52.172;10.668;2023-03-23T15:20:06;2.10;;;1.00;;
15285;SDS011;7744;52.172;10.668;2023-03-23T15:22:34;4.45;;;1.10;;
15285;SDS011;7744;52.172;10.668;2023-03-23T15:27:55;2.67;;;1.10;;
15285;SDS011;7744;52.172;10.668;2023-03-23T15:30:34;2.20;;;1.17;;
15285;SDS011;7744;52.172;10.668;2023-03-23T15:33:12;3.65;;;1.42;;
15285;SDS011;7744;52.172;10.668;2023-03-23T15:35:39;3.03;;;1.55;;
15285;SDS011;7744;52.172;10.668;2023-03-23T15:38:15;2.42;;;1.42;;
15285;SDS011;7744;52.172;10.668;2023-03-23T15:40:48;1.88;;;1.33;;
15285;SDS011;7744;52.172;10.668;2023-03-23T15:43:23;3.38;;;1.42;;
15285;SDS011;7744;52.172;10.668;2023-03-23T15:48:25;2.67;;;2.05;;
15285;SDS011;7744;52.172;10.668;2023-03-23T15:50:51;3.20;;;1.70;;
15285;SDS011;7744;52.172;10.668;2023-03-23T15:55:43;5.70;;;1.58;;
15285;SDS011;7744;52.172;10.668;2023-03-23T15:58:09;3.38;;;1.48;;
15285;SDS011;7744;52.172;10.668;2023-03-23T16:00:36;2.38;;;1.48;;
15285;SDS011;7744;52.172;10.668;2023-03-23T16:03:05;4.47;;;2.00;;
15285;SDS011;7744;52.172;10.668;2023-03-23T16:05:32;3.20;;;1.73;;
15285;SDS011;7744;52.172;10.668;2023-03-23T16:07:58;2.75;;;1.70;;
15285;SDS011;7744;52.172;10.668;2023-03-23T16:10:25;3.47;;;1.92;;
15285;SDS011;7744;52.172;10.668;2023-03-23T16:12:52;2.55;;;1.70;;
15285;SDS011;7744;52.172;10.668;2023-03-23T16:15:18;4.28;;;2.00;;
15285;SDS011;7744;52.172;10.668;2023-03-23T16:17:44;3.63;;;1.80;;
15285;SDS011;7744;52.172;10.668;2023-03-23T16:20:17;2.00;;;1.50;;
15285;SDS011;7744;52.172;10.668;2023-03-23T16:22:45;3.22;;;1.25;;
15285;SDS011;7744;52.172;10.668;2023-03-23T16:25:11;2.17;;;1.48;;
15285;SDS011;7744;52.172;10.668;2023-03-23T16:27:38;2.65;;;1.50;;
15285;SDS011;7744;52.172;10.668;2023-03-23T16:30:21;3.55;;;1.30;;
15285;SDS011;7744;52.172;10.668;2023-03-23T16:32:48;2.65;;;1.42;;
15285;SDS011;7744;52.172;10.668;2023-03-23T16:35:14;3.05;;;1.70;;
15285;SDS011;7744;52.172;10.668;2023-03-23T16:37:44;2.15;;;1.20;;
15285;SDS011;7744;52.172;10.668;2023-03-23T16:40:20;3.13;;;1.30;;
15285;SDS011;7744;52.172;10.668;2023-03-23T16:42:46;2.13;;;1.30;;
15285;SDS011;7744;52.172;10.668;2023-03-23T16:45:13;2.50;;;1.30;;
15285;SDS011;7744;52.172;10.668;2023-03-23T16:47:39;2.33;;;1.30;;
15285;SDS011;7744;52.172;10.668;2023-03-23T16:50:06;1.90;;;1.48;;
15285;SDS011;7744;52.172;10.668;2023-03-23T16:52:35;2.67;;;1.55;;
15285;SDS011;7744;52.172;10.668;2023-03-23T16:55:02;4.15;;;2.83;;
15285;SDS011;7744;52.172;10.668;2023-03-23T16:57:29;7.20;;;4.30;;
15285;SDS011;7744;52.172;10.668;2023-03-23T16:59:58;3.40;;;2.25;;
15285;SDS011;7744;52.172;10.668;2023-03-23T17:02:24;22.48;;;10.90;;
15285;SDS011;7744;52.172;10.668;2023-03-23T17:04:50;8.55;;;4.47;;
15285;SDS011;7744;52.172;10.668;2023-03-23T17:07:16;12.23;;;5.70;;
15285;SDS011;7744;52.172;10.668;2023-03-23T17:09:42;9.38;;;6.57;;